sensor_id;sensor_type;location;lat;lon;timestamp;temperature;humidity
70928;SHT31;58587;53.034;18.576;2024-02-15T00:00:10;6.46;88.40
70928;SHT31;58587;53.034;18.576;2024-02-15T00:02:36;6.48;89.03
70928;SHT31;58587;53.034;18.576;2024-02-15T00:05:01;6.50;88.64
70928;SHT31;58587;53.034;18.576;2024-02-15T00:07:27;6.49;88.96
70928;SHT31;58587;53.034;18.576;2024-02-15T00:09:52;6.52;88.89
70928;SHT31;58587;53.034;18.576;2024-02-15T00:12:19;6.55;89.18
70928;SHT31;58587;53.034;18.576;2024-02-15T00:14:44;6.53;89.51
70928;SHT31;58587;53.034;18.576;2024-02-15T00:17:09;6.53;89.68
70928;SHT31;58587;53.034;18.576;2024-02-15T00:19:37;6.52;89.68
70928;SHT31;58587;53.034;18.576;2024-02-15T00:22:03;6.50;90.11
70928;SHT31;58587;53.034;18.576;2024-02-15T00:24:29;6.53;90.42
70928;SHT31;58587;53.034;18.576;2024-02-15T00:26:56;6.52;91.01
70928;SHT31;58587;53.034;18.576;2024-02-15T00:29:21;6.53;90.80
70928;SHT31;58587;53.034;18.576;2024-02-15T00:31:47;6.52;91.19
70928;SHT31;58587;53.034;18.576;2024-02-15T00:34:12;6.50;91.75
70928;SHT31;58587;53.034;18.576;2024-02-15T00:36:41;6.48;91.85
70928;SHT31;58587;53.034;18.576;2024-02-15T00:39:06;6.49;91.98
70928;SHT31;58587;53.034;18.576;2024-02-15T00:41:33;6.53;91.90
70928;SHT31;58587;53.034;18.576;2024-02-15T00:43:59;6.53;92.17
70928;SHT31;58587;53.034;18.576;2024-02-15T00:46:24;6.55;91.84
70928;SHT31;58587;53.034;18.576;2024-02-15T00:48:52;6.52;92.10
70928;SHT31;58587;53.034;18.576;2024-02-15T00:51:17;6.56;91.99
70928;SHT31;58587;53.034;18.576;2024-02-15T00:53:43;6.52;92.03
70928;SHT31;58587;53.034;18.576;2024-02-15T00:56:08;6.49;92.98
70928;SHT31;58587;53.034;18.576;2024-02-15T00:58:33;6.50;92.67
70928;SHT31;58587;53.034;18.576;2024-02-15T01:00:59;6.53;92.35
70928;SHT31;58587;53.034;18.576;2024-02-15T01:03:25;6.55;92.54
70928;SHT31;58587;53.034;18.576;2024-02-15T01:05:51;6.50;92.91
70928;SHT31;58587;53.034;18.576;2024-02-15T01:08:16;6.52;92.63
70928;SHT31;58587;53.034;18.576;2024-02-15T01:10:42;6.55;92.42
70928;SHT31;58587;53.034;18.576;2024-02-15T01:13:07;6.53;93.21
70928;SHT31;58587;53.034;18.576;2024-02-15T01:15:33;6.50;93.40
70928;SHT31;58587;53.034;18.576;2024-02-15T01:17:59;6.55;93.03
70928;SHT31;58587;53.034;18.576;2024-02-15T01:20:24;6.55;93.09
70928;SHT31;58587;53.034;18.576;2024-02-15T01:22:49;6.53;93.21
70928;SHT31;58587;53.034;18.576;2024-02-15T01:25:16;6.55;93.11
70928;SHT31;58587;53.034;18.576;2024-02-15T01:27:42;6.52;93.34
70928;SHT31;58587;53.034;18.576;2024-02-15T01:30:08;6.56;93.60
70928;SHT31;58587;53.034;18.576;2024-02-15T01:32:35;6.56;93.49
70928;SHT31;58587;53.034;18.576;2024-02-15T01:35:02;6.53;93.58
70928;SHT31;58587;53.034;18.576;2024-02-15T01:37:27;6.55;93.49
70928;SHT31;58587;53.034;18.576;2024-02-15T01:39:53;6.55;93.46
70928;SHT31;58587;53.034;18.576;2024-02-15T01:42:18;6.61;93.53
70928;SHT31;58587;53.034;18.576;2024-02-15T01:44:44;6.55;94.16
70928;SHT31;58587;53.034;18.576;2024-02-15T01:47:10;6.49;94.23
70928;SHT31;58587;53.034;18.576;2024-02-15T01:49:36;6.52;94.30
70928;SHT31;58587;53.034;18.576;2024-02-15T01:52:02;6.53;94.23
70928;SHT31;58587;53.034;18.576;2024-02-15T01:54:29;6.55;93.96
70928;SHT31;58587;53.034;18.576;2024-02-15T01:56:56;6.53;94.55
70928;SHT31;58587;53.034;18.576;2024-02-15T01:59:23;6.55;94.59
70928;SHT31;58587;53.034;18.576;2024-02-15T02:01:48;6.52;94.88
70928;SHT31;58587;53.034;18.576;2024-02-15T02:04:15;6.53;94.49
70928;SHT31;58587;53.034;18.576;2024-02-15T02:06:40;6.56;94.35
70928;SHT31;58587;53.034;18.576;2024-02-15T02:09:12;6.61;94.20
70928;SHT31;58587;53.034;18.576;2024-02-15T02:11:38;6.61;94.12
70928;SHT31;58587;53.034;18.576;2024-02-15T02:14:03;6.63;94.20
70928;SHT31;58587;53.034;18.576;2024-02-15T02:16:30;6.61;94.47
70928;SHT31;58587;53.034;18.576;2024-02-15T02:18:58;6.59;94.64
70928;SHT31;58587;53.034;18.576;2024-02-15T02:21:28;6.56;94.79
70928;SHT31;58587;53.034;18.576;2024-02-15T02:23:56;6.61;95.18
70928;SHT31;58587;53.034;18.576;2024-02-15T02:26:22;6.59;95.05
70928;SHT31;58587;53.034;18.576;2024-02-15T02:28:49;6.61;94.97
70928;SHT31;58587;53.034;18.576;2024-02-15T02:31:14;6.63;94.67
70928;SHT31;58587;53.034;18.576;2024-02-15T02:33:41;6.66;94.58
70928;SHT31;58587;53.034;18.576;2024-02-15T02:36:07;6.65;95.12
70928;SHT31;58587;53.034;18.576;2024-02-15T02:38:35;6.65;95.03
70928;SHT31;58587;53.034;18.576;2024-02-15T02:41:05;6.65;94.87
70928;SHT31;58587;53.034;18.576;2024-02-15T02:43:31;6.65;94.95
70928;SHT31;58587;53.034;18.576;2024-02-15T02:45:56;6.71;94.78
70928;SHT31;58587;53.034;18.576;2024-02-15T02:48:21;6.69;95.19
70928;SHT31;58587;53.034;18.576;2024-02-15T02:50:48;6.73;94.85
70928;SHT31;58587;53.034;18.576;2024-02-15T02:53:13;6.75;94.77
70928;SHT31;58587;53.034;18.576;2024-02-15T02:55:41;6.73;95.38
70928;SHT31;58587;53.034;18.576;2024-02-15T02:58:06;6.72;95.15
70928;SHT31;58587;53.034;18.576;2024-02-15T03:00:33;6.72;95.24
70928;SHT31;58587;53.034;18.576;2024-02-15T03:02:59;6.73;95.25
70928;SHT31;58587;53.034;18.576;2024-02-15T03:05:27;6.76;95.29
70928;SHT31;58587;53.034;18.576;2024-02-15T03:07:54;6.75;95.23
70928;SHT31;58587;53.034;18.576;2024-02-15T03:10:20;6.77;95.79
70928;SHT31;58587;53.034;18.576;2024-02-15T03:12:45;6.79;95.77
70928;SHT31;58587;53.034;18.576;2024-02-15T03:15:14;6.76;95.55
70928;SHT31;58587;53.034;18.576;2024-02-15T03:17:40;6.82;95.67
70928;SHT31;58587;53.034;18.576;2024-02-15T03:20:10;6.80;95.65
70928;SHT31;58587;53.034;18.576;2024-02-15T03:22:57;6.77;95.82
70928;SHT31;58587;53.034;18.576;2024-02-15T03:25:24;6.82;95.88
70928;SHT31;58587;53.034;18.576;2024-02-15T03:27:50;6.85;95.99
70928;SHT31;58587;53.034;18.576;2024-02-15T03:30:19;6.83;95.92
70928;SHT31;58587;53.034;18.576;2024-02-15T03:32:46;6.85;95.97
70928;SHT31;58587;53.034;18.576;2024-02-15T03:35:13;6.83;96.04
70928;SHT31;58587;53.034;18.576;2024-02-15T03:37:39;6.85;95.96
70928;SHT31;58587;53.034;18.576;2024-02-15T03:40:05;6.86;95.88
70928;SHT31;58587;53.034;18.576;2024-02-15T03:42:31;6.89;95.71
70928;SHT31;58587;53.034;18.576;2024-02-15T03:44:56;6.87;95.80
70928;SHT31;58587;53.034;18.576;2024-02-15T03:47:21;6.89;95.88
70928;SHT31;58587;53.034;18.576;2024-02-15T03:49:47;6.90;95.54
70928;SHT31;58587;53.034;18.576;2024-02-15T03:52:12;6.92;95.58
70928;SHT31;58587;53.034;18.576;2024-02-15T03:54:38;6.92;95.90
70928;SHT31;58587;53.034;18.576;2024-02-15T03:57:04;6.90;95.92
70928;SHT31;58587;53.034;18.576;2024-02-15T03:59:31;6.93;95.64
70928;SHT31;58587;53.034;18.576;2024-02-15T04:01:57;6.93;95.62
70928;SHT31;58587;53.034;18.576;2024-02-15T04:04:23;6.93;95.94
70928;SHT31;58587;53.034;18.576;2024-02-15T04:06:49;6.93;95.77
70928;SHT31;58587;53.034;18.576;2024-02-15T04:09:15;6.96;95.73
70928;SHT31;58587;53.034;18.576;2024-02-15T04:11:42;6.93;96.09
70928;SHT31;58587;53.034;18.576;2024-02-15T04:14:07;6.96;95.93
70928;SHT31;58587;53.034;18.576;2024-02-15T04:16:33;6.96;95.99
70928;SHT31;58587;53.034;18.576;2024-02-15T04:19:01;6.96;96.12
70928;SHT31;58587;53.034;18.576;2024-02-15T04:21:26;6.99;95.88
70928;SHT31;58587;53.034;18.576;2024-02-15T04:23:52;7.00;95.92
70928;SHT31;58587;53.034;18.576;2024-02-15T04:26:19;6.99;95.79
70928;SHT31;58587;53.034;18.576;2024-02-15T04:28:45;7.01;95.85
70928;SHT31;58587;53.034;18.576;2024-02-15T04:31:13;6.99;96.18
70928;SHT31;58587;53.034;18.576;2024-02-15T04:33:39;7.03;96.12
70928;SHT31;58587;53.034;18.576;2024-02-15T04:36:05;7.01;96.54
70928;SHT31;58587;53.034;18.576;2024-02-15T04:38:32;7.03;96.50
70928;SHT31;58587;53.034;18.576;2024-02-15T04:41:02;7.07;96.26
70928;SHT31;58587;53.034;18.576;2024-02-15T04:43:30;7.04;96.38
70928;SHT31;58587;53.034;18.576;2024-02-15T04:45:57;7.08;96.29
70928;SHT31;58587;53.034;18.576;2024-02-15T04:48:23;7.06;96.57
70928;SHT31;58587;53.034;18.576;2024-02-15T04:50:50;7.08;96.42
70928;SHT31;58587;53.034;18.576;2024-02-15T04:53:16;7.10;96.18
70928;SHT31;58587;53.034;18.576;2024-02-15T04:55:42;7.10;96.38
70928;SHT31;58587;53.034;18.576;2024-02-15T04:58:07;7.11;96.58
70928;SHT31;58587;53.034;18.576;2024-02-15T05:00:35;7.10;96.62
70928;SHT31;58587;53.034;18.576;2024-02-15T05:03:01;7.10;96.66
70928;SHT31;58587;53.034;18.576;2024-02-15T05:05:27;7.08;96.61
70928;SHT31;58587;53.034;18.576;2024-02-15T05:07:54;7.11;96.61
70928;SHT31;58587;53.034;18.576;2024-02-15T05:10:19;7.17;96.35
70928;SHT31;58587;53.034;18.576;2024-02-15T05:12:45;7.17;96.31
70928;SHT31;58587;53.034;18.576;2024-02-15T05:15:15;7.20;96.07
70928;SHT31;58587;53.034;18.576;2024-02-15T05:17:42;7.20;96.22
70928;SHT31;58587;53.034;18.576;2024-02-15T05:20:10;7.20;96.31
70928;SHT31;58587;53.034;18.576;2024-02-15T05:22:42;7.21;96.33
70928;SHT31;58587;53.034;18.576;2024-02-15T05:25:13;7.21;96.40
70928;SHT31;58587;53.034;18.576;2024-02-15T05:27:41;7.20;96.23
70928;SHT31;58587;53.034;18.576;2024-02-15T05:30:08;7.24;96.26
70928;SHT31;58587;53.034;18.576;2024-02-15T05:32:34;7.26;96.14
70928;SHT31;58587;53.034;18.576;2024-02-15T05:35:09;7.27;96.39
70928;SHT31;58587;53.034;18.576;2024-02-15T05:37:35;7.21;96.53
70928;SHT31;58587;53.034;18.576;2024-02-15T05:40:00;7.24;96.44
70928;SHT31;58587;53.034;18.576;2024-02-15T05:42:26;7.26;96.49
70928;SHT31;58587;53.034;18.576;2024-02-15T05:44:52;7.24;96.65
70928;SHT31;58587;53.034;18.576;2024-02-15T05:47:17;7.27;96.56
70928;SHT31;58587;53.034;18.576;2024-02-15T05:49:43;7.27;96.63
70928;SHT31;58587;53.034;18.576;2024-02-15T05:52:10;7.28;96.57
70928;SHT31;58587;53.034;18.576;2024-02-15T05:54:36;7.27;96.67
70928;SHT31;58587;53.034;18.576;2024-02-15T05:57:01;7.28;96.80
70928;SHT31;58587;53.034;18.576;2024-02-15T05:59:26;7.27;96.69
70928;SHT31;58587;53.034;18.576;2024-02-15T06:01:52;7.27;96.90
70928;SHT31;58587;53.034;18.576;2024-02-15T06:04:18;7.27;96.70
70928;SHT31;58587;53.034;18.576;2024-02-15T06:06:44;7.31;96.69
70928;SHT31;58587;53.034;18.576;2024-02-15T06:09:13;7.30;96.74
70928;SHT31;58587;53.034;18.576;2024-02-15T06:11:39;7.30;96.76
70928;SHT31;58587;53.034;18.576;2024-02-15T06:14:04;7.32;96.74
70928;SHT31;58587;53.034;18.576;2024-02-15T06:16:31;7.32;96.71
70928;SHT31;58587;53.034;18.576;2024-02-15T06:18:56;7.31;96.58
70928;SHT31;58587;53.034;18.576;2024-02-15T06:21:22;7.32;96.76
70928;SHT31;58587;53.034;18.576;2024-02-15T06:23:48;7.32;96.67
70928;SHT31;58587;53.034;18.576;2024-02-15T06:26:15;7.37;96.92
70928;SHT31;58587;53.034;18.576;2024-02-15T06:28:41;7.35;96.88
70928;SHT31;58587;53.034;18.576;2024-02-15T06:31:25;7.38;96.75
70928;SHT31;58587;53.034;18.576;2024-02-15T06:34:09;7.37;96.98
70928;SHT31;58587;53.034;18.576;2024-02-15T06:36:55;7.37;96.97
70928;SHT31;58587;53.034;18.576;2024-02-15T06:39:39;7.38;96.83
70928;SHT31;58587;53.034;18.576;2024-02-15T06:42:16;7.46;96.83
70928;SHT31;58587;53.034;18.576;2024-02-15T06:44:47;7.44;96.83
70928;SHT31;58587;53.034;18.576;2024-02-15T06:47:13;7.44;96.90
70928;SHT31;58587;53.034;18.576;2024-02-15T06:49:40;7.46;96.97
70928;SHT31;58587;53.034;18.576;2024-02-15T06:52:07;7.47;96.86
70928;SHT31;58587;53.034;18.576;2024-02-15T06:54:36;7.50;96.83
70928;SHT31;58587;53.034;18.576;2024-02-15T06:57:03;7.52;96.80
70928;SHT31;58587;53.034;18.576;2024-02-15T06:59:30;7.48;96.95
70928;SHT31;58587;53.034;18.576;2024-02-15T07:01:57;7.52;97.01
70928;SHT31;58587;53.034;18.576;2024-02-15T07:04:23;7.57;97.07
70928;SHT31;58587;53.034;18.576;2024-02-15T07:06:51;7.59;96.87
70928;SHT31;58587;53.034;18.576;2024-02-15T07:09:17;7.59;96.78
70928;SHT31;58587;53.034;18.576;2024-02-15T07:11:45;7.62;96.62
70928;SHT31;58587;53.034;18.576;2024-02-15T07:14:12;7.67;96.65
70928;SHT31;58587;53.034;18.576;2024-02-15T07:16:38;7.68;96.56
70928;SHT31;58587;53.034;18.576;2024-02-15T07:19:03;7.69;96.77
70928;SHT31;58587;53.034;18.576;2024-02-15T07:21:28;7.68;96.74
70928;SHT31;58587;53.034;18.576;2024-02-15T07:23:55;7.72;96.77
70928;SHT31;58587;53.034;18.576;2024-02-15T07:26:21;7.72;96.80
70928;SHT31;58587;53.034;18.576;2024-02-15T07:28:50;7.78;96.81
70928;SHT31;58587;53.034;18.576;2024-02-15T07:31:17;7.78;96.69
70928;SHT31;58587;53.034;18.576;2024-02-15T07:33:43;7.79;96.66
70928;SHT31;58587;53.034;18.576;2024-02-15T07:36:08;7.81;96.66
70928;SHT31;58587;53.034;18.576;2024-02-15T07:38:34;7.81;96.61
70928;SHT31;58587;53.034;18.576;2024-02-15T07:40:59;7.81;96.53
70928;SHT31;58587;53.034;18.576;2024-02-15T07:43:25;7.81;96.61
70928;SHT31;58587;53.034;18.576;2024-02-15T07:45:51;7.82;96.58
70928;SHT31;58587;53.034;18.576;2024-02-15T07:48:17;7.83;96.39
70928;SHT31;58587;53.034;18.576;2024-02-15T07:50:42;7.82;96.58
70928;SHT31;58587;53.034;18.576;2024-02-15T07:53:09;7.83;96.55
70928;SHT31;58587;53.034;18.576;2024-02-15T07:55:36;7.86;96.53
70928;SHT31;58587;53.034;18.576;2024-02-15T07:58:03;7.88;96.62
70928;SHT31;58587;53.034;18.576;2024-02-15T08:00:28;7.91;96.52
70928;SHT31;58587;53.034;18.576;2024-02-15T08:02:55;7.91;96.54
70928;SHT31;58587;53.034;18.576;2024-02-15T08:05:22;7.92;96.62
70928;SHT31;58587;53.034;18.576;2024-02-15T08:07:47;7.95;96.54
70928;SHT31;58587;53.034;18.576;2024-02-15T08:10:13;7.95;96.62
70928;SHT31;58587;53.034;18.576;2024-02-15T08:12:48;7.93;96.66
70928;SHT31;58587;53.034;18.576;2024-02-15T08:15:17;7.95;96.67
70928;SHT31;58587;53.034;18.576;2024-02-15T08:17:44;7.95;96.72
70928;SHT31;58587;53.034;18.576;2024-02-15T08:20:14;7.95;96.60
70928;SHT31;58587;53.034;18.576;2024-02-15T08:22:40;7.98;96.74
70928;SHT31;58587;53.034;18.576;2024-02-15T08:25:10;7.99;96.76
70928;SHT31;58587;53.034;18.576;2024-02-15T08:27:37;7.99;96.73
70928;SHT31;58587;53.034;18.576;2024-02-15T08:30:07;7.98;96.72
70928;SHT31;58587;53.034;18.576;2024-02-15T08:32:39;8.01;96.76
70928;SHT31;58587;53.034;18.576;2024-02-15T08:35:05;8.03;96.83
70928;SHT31;58587;53.034;18.576;2024-02-15T08:37:31;8.02;96.97
70928;SHT31;58587;53.034;18.576;2024-02-15T08:39:59;8.06;96.92
70928;SHT31;58587;53.034;18.576;2024-02-15T08:42:25;8.10;96.96
70928;SHT31;58587;53.034;18.576;2024-02-15T08:44:51;8.13;96.98
70928;SHT31;58587;53.034;18.576;2024-02-15T08:47:16;8.13;97.01
70928;SHT31;58587;53.034;18.576;2024-02-15T08:49:42;8.16;97.12
70928;SHT31;58587;53.034;18.576;2024-02-15T08:52:07;8.22;97.06
70928;SHT31;58587;53.034;18.576;2024-02-15T08:54:35;8.25;97.11
70928;SHT31;58587;53.034;18.576;2024-02-15T08:57:04;8.23;97.14
70928;SHT31;58587;53.034;18.576;2024-02-15T08:59:29;8.29;97.25
70928;SHT31;58587;53.034;18.576;2024-02-15T09:01:55;8.30;97.25
70928;SHT31;58587;53.034;18.576;2024-02-15T09:04:22;8.30;97.12
70928;SHT31;58587;53.034;18.576;2024-02-15T09:06:50;8.30;97.17
70928;SHT31;58587;53.034;18.576;2024-02-15T09:09:16;8.36;97.13
70928;SHT31;58587;53.034;18.576;2024-02-15T09:11:41;8.34;97.11
70928;SHT31;58587;53.034;18.576;2024-02-15T09:14:07;8.33;97.01
70928;SHT31;58587;53.034;18.576;2024-02-15T09:16:35;8.34;96.95
70928;SHT31;58587;53.034;18.576;2024-02-15T09:19:01;8.42;97.04
70928;SHT31;58587;53.034;18.576;2024-02-15T09:21:27;8.42;96.93
70928;SHT31;58587;53.034;18.576;2024-02-15T09:23:54;8.42;96.97
70928;SHT31;58587;53.034;18.576;2024-02-15T09:26:19;8.40;97.06
70928;SHT31;58587;53.034;18.576;2024-02-15T09:28:45;8.39;97.14
70928;SHT31;58587;53.034;18.576;2024-02-15T09:31:12;8.44;97.18
70928;SHT31;58587;53.034;18.576;2024-02-15T09:33:39;8.42;97.21
70928;SHT31;58587;53.034;18.576;2024-02-15T09:36:04;8.46;97.19
70928;SHT31;58587;53.034;18.576;2024-02-15T09:38:30;8.53;97.26
70928;SHT31;58587;53.034;18.576;2024-02-15T09:40:55;8.59;97.13
70928;SHT31;58587;53.034;18.576;2024-02-15T09:43:21;8.60;97.05
70928;SHT31;58587;53.034;18.576;2024-02-15T09:45:47;8.64;96.93
70928;SHT31;58587;53.034;18.576;2024-02-15T09:48:13;8.70;96.94
70928;SHT31;58587;53.034;18.576;2024-02-15T09:50:41;8.76;96.97
70928;SHT31;58587;53.034;18.576;2024-02-15T09:53:09;8.74;96.89
70928;SHT31;58587;53.034;18.576;2024-02-15T09:55:35;8.83;97.05
70928;SHT31;58587;53.034;18.576;2024-02-15T09:58:01;8.80;96.77
70928;SHT31;58587;53.034;18.576;2024-02-15T10:00:26;8.85;96.82
70928;SHT31;58587;53.034;18.576;2024-02-15T10:02:52;8.88;96.84
70928;SHT31;58587;53.034;18.576;2024-02-15T10:05:18;8.92;96.72
70928;SHT31;58587;53.034;18.576;2024-02-15T10:07:45;8.95;96.52
70928;SHT31;58587;53.034;18.576;2024-02-15T10:10:17;8.95;96.37
70928;SHT31;58587;53.034;18.576;2024-02-15T10:12:44;8.98;96.53
70928;SHT31;58587;53.034;18.576;2024-02-15T10:15:09;9.03;96.49
70928;SHT31;58587;53.034;18.576;2024-02-15T10:17:35;9.05;96.54
70928;SHT31;58587;53.034;18.576;2024-02-15T10:20:05;9.05;96.62
70928;SHT31;58587;53.034;18.576;2024-02-15T10:22:30;9.11;96.47
70928;SHT31;58587;53.034;18.576;2024-02-15T10:25:13;9.18;96.46
70928;SHT31;58587;53.034;18.576;2024-02-15T10:27:41;9.21;96.47
70928;SHT31;58587;53.034;18.576;2024-02-15T10:32:43;9.19;96.32
70928;SHT31;58587;53.034;18.576;2024-02-15T10:35:09;9.21;96.29
70928;SHT31;58587;53.034;18.576;2024-02-15T10:37:34;9.19;95.89
70928;SHT31;58587;53.034;18.576;2024-02-15T10:40:06;9.22;96.14
70928;SHT31;58587;53.034;18.576;2024-02-15T10:42:33;9.25;96.23
70928;SHT31;58587;53.034;18.576;2024-02-15T10:45:03;9.28;95.97
70928;SHT31;58587;53.034;18.576;2024-02-15T10:47:43;9.25;96.05
70928;SHT31;58587;53.034;18.576;2024-02-15T10:50:18;9.29;96.11
70928;SHT31;58587;53.034;18.576;2024-02-15T10:52:51;9.31;95.99
70928;SHT31;58587;53.034;18.576;2024-02-15T10:55:29;9.28;95.92
70928;SHT31;58587;53.034;18.576;2024-02-15T10:58:01;9.34;95.72
70928;SHT31;58587;53.034;18.576;2024-02-15T11:00:29;9.36;95.95
70928;SHT31;58587;53.034;18.576;2024-02-15T11:03:07;9.35;95.92
70928;SHT31;58587;53.034;18.576;2024-02-15T11:05:34;9.43;96.08
70928;SHT31;58587;53.034;18.576;2024-02-15T11:08:08;9.40;95.79
70928;SHT31;58587;53.034;18.576;2024-02-15T11:10:35;9.40;95.79
70928;SHT31;58587;53.034;18.576;2024-02-15T11:13:02;9.42;95.57
70928;SHT31;58587;53.034;18.576;2024-02-15T11:15:54;9.43;95.73
70928;SHT31;58587;53.034;18.576;2024-02-15T11:18:42;9.43;95.67
70928;SHT31;58587;53.034;18.576;2024-02-15T11:21:09;9.43;95.53
70928;SHT31;58587;53.034;18.576;2024-02-15T11:23:35;9.52;95.70
70928;SHT31;58587;53.034;18.576;2024-02-15T11:26:00;9.63;95.86
70928;SHT31;58587;53.034;18.576;2024-02-15T11:30:55;9.76;95.81
70928;SHT31;58587;53.034;18.576;2024-02-15T11:33:29;9.78;95.18
70928;SHT31;58587;53.034;18.576;2024-02-15T11:36:13;9.82;95.31
70928;SHT31;58587;53.034;18.576;2024-02-15T11:38:40;9.85;95.15
70928;SHT31;58587;53.034;18.576;2024-02-15T11:41:10;9.92;95.53
70928;SHT31;58587;53.034;18.576;2024-02-15T11:46:14;10.03;95.27
70928;SHT31;58587;53.034;18.576;2024-02-15T11:48:39;10.06;95.24
70928;SHT31;58587;53.034;18.576;2024-02-15T11:51:06;10.04;94.91
70928;SHT31;58587;53.034;18.576;2024-02-15T11:53:32;10.09;95.13
70928;SHT31;58587;53.034;18.576;2024-02-15T11:56:01;10.10;95.16
70928;SHT31;58587;53.034;18.576;2024-02-15T11:58:27;10.09;94.84
70928;SHT31;58587;53.034;18.576;2024-02-15T12:01:08;10.16;95.02
70928;SHT31;58587;53.034;18.576;2024-02-15T12:03:54;10.14;94.83
70928;SHT31;58587;53.034;18.576;2024-02-15T12:06:38;10.18;94.89
70928;SHT31;58587;53.034;18.576;2024-02-15T12:09:22;10.21;94.63
70928;SHT31;58587;53.034;18.576;2024-02-15T12:12:06;10.27;94.66
70928;SHT31;58587;53.034;18.576;2024-02-15T12:15:00;10.21;94.43
70928;SHT31;58587;53.034;18.576;2024-02-15T12:17:44;10.20;94.14
70928;SHT31;58587;53.034;18.576;2024-02-15T12:20:28;10.20;94.23
70928;SHT31;58587;53.034;18.576;2024-02-15T12:22:54;10.24;94.36
70928;SHT31;58587;53.034;18.576;2024-02-15T12:25:20;10.24;94.37
70928;SHT31;58587;53.034;18.576;2024-02-15T12:27:54;10.24;94.61
70928;SHT31;58587;53.034;18.576;2024-02-15T12:30:20;10.25;94.27
70928;SHT31;58587;53.034;18.576;2024-02-15T12:32:49;10.29;94.47
70928;SHT31;58587;53.034;18.576;2024-02-15T12:35:16;10.27;94.38
70928;SHT31;58587;53.034;18.576;2024-02-15T12:37:47;10.25;94.57
70928;SHT31;58587;53.034;18.576;2024-02-15T12:40:15;10.29;94.67
70928;SHT31;58587;53.034;18.576;2024-02-15T12:42:43;10.24;94.24
70928;SHT31;58587;53.034;18.576;2024-02-15T12:45:19;10.29;94.44
70928;SHT31;58587;53.034;18.576;2024-02-15T12:47:55;10.30;94.42
70928;SHT31;58587;53.034;18.576;2024-02-15T12:50:22;10.30;94.18
70928;SHT31;58587;53.034;18.576;2024-02-15T12:52:49;10.27;94.27
70928;SHT31;58587;53.034;18.576;2024-02-15T12:55:22;10.25;94.12
70928;SHT31;58587;53.034;18.576;2024-02-15T12:57:53;10.27;94.08
70928;SHT31;58587;53.034;18.576;2024-02-15T13:00:24;10.27;94.21
70928;SHT31;58587;53.034;18.576;2024-02-15T13:03:04;10.24;94.21
70928;SHT31;58587;53.034;18.576;2024-02-15T13:05:31;10.29;94.40
70928;SHT31;58587;53.034;18.576;2024-02-15T13:07:57;10.29;94.22
70928;SHT31;58587;53.034;18.576;2024-02-15T13:10:31;10.30;94.15
70928;SHT31;58587;53.034;18.576;2024-02-15T13:12:57;10.30;94.41
70928;SHT31;58587;53.034;18.576;2024-02-15T13:15:24;10.30;94.57
70928;SHT31;58587;53.034;18.576;2024-02-15T13:17:56;10.30;94.38
70928;SHT31;58587;53.034;18.576;2024-02-15T13:20:22;10.33;94.43
70928;SHT31;58587;53.034;18.576;2024-02-15T13:22:57;10.36;94.68
70928;SHT31;58587;53.034;18.576;2024-02-15T13:25:25;10.38;94.63
70928;SHT31;58587;53.034;18.576;2024-02-15T13:27:51;10.38;94.61
70928;SHT31;58587;53.034;18.576;2024-02-15T13:30:16;10.38;94.60
70928;SHT31;58587;53.034;18.576;2024-02-15T13:32:48;10.40;94.63
70928;SHT31;58587;53.034;18.576;2024-02-15T13:35:13;10.44;94.60
70928;SHT31;58587;53.034;18.576;2024-02-15T13:37:49;10.41;94.55
70928;SHT31;58587;53.034;18.576;2024-02-15T13:40:15;10.44;94.55
70928;SHT31;58587;53.034;18.576;2024-02-15T13:42:47;10.41;94.61
70928;SHT31;58587;53.034;18.576;2024-02-15T13:45:20;10.43;94.72
70928;SHT31;58587;53.034;18.576;2024-02-15T13:47:47;10.41;94.79
70928;SHT31;58587;53.034;18.576;2024-02-15T13:50:13;10.43;94.78
70928;SHT31;58587;53.034;18.576;2024-02-15T13:52:43;10.44;94.78
70928;SHT31;58587;53.034;18.576;2024-02-15T13:55:15;10.44;94.61
70928;SHT31;58587;53.034;18.576;2024-02-15T13:57:42;10.44;94.71
70928;SHT31;58587;53.034;18.576;2024-02-15T14:00:12;10.44;94.71
70928;SHT31;58587;53.034;18.576;2024-02-15T14:02:53;10.44;94.64
70928;SHT31;58587;53.034;18.576;2024-02-15T14:05:21;10.43;94.67
70928;SHT31;58587;53.034;18.576;2024-02-15T14:07:51;10.41;94.53
70928;SHT31;58587;53.034;18.576;2024-02-15T14:10:30;10.41;94.55
70928;SHT31;58587;53.034;18.576;2024-02-15T14:12:56;10.37;94.54
70928;SHT31;58587;53.034;18.576;2024-02-15T14:15:24;10.40;94.64
70928;SHT31;58587;53.034;18.576;2024-02-15T14:17:49;10.38;94.72
70928;SHT31;58587;53.034;18.576;2024-02-15T14:20:14;10.40;94.64
70928;SHT31;58587;53.034;18.576;2024-02-15T14:22:45;10.38;94.58
70928;SHT31;58587;53.034;18.576;2024-02-15T14:25:14;10.36;94.57
70928;SHT31;58587;53.034;18.576;2024-02-15T14:27:40;10.33;94.63
70928;SHT31;58587;53.034;18.576;2024-02-15T14:30:07;10.36;94.60
70928;SHT31;58587;53.034;18.576;2024-02-15T14:32:51;10.37;94.64
70928;SHT31;58587;53.034;18.576;2024-02-15T14:35:27;10.36;94.66
70928;SHT31;58587;53.034;18.576;2024-02-15T14:37:55;10.34;94.67
70928;SHT31;58587;53.034;18.576;2024-02-15T14:40:23;10.31;94.48
70928;SHT31;58587;53.034;18.576;2024-02-15T14:42:48;10.34;94.47
70928;SHT31;58587;53.034;18.576;2024-02-15T14:45:14;10.30;94.43
70928;SHT31;58587;53.034;18.576;2024-02-15T14:47:39;10.29;94.46
70928;SHT31;58587;53.034;18.576;2024-02-15T14:50:05;10.30;94.46
70928;SHT31;58587;53.034;18.576;2024-02-15T14:52:36;10.30;94.45
70928;SHT31;58587;53.034;18.576;2024-02-15T14:55:04;10.29;94.41
70928;SHT31;58587;53.034;18.576;2024-02-15T14:57:33;10.25;94.45
70928;SHT31;58587;53.034;18.576;2024-02-15T14:59:59;10.24;94.45
70928;SHT31;58587;53.034;18.576;2024-02-15T15:02:24;10.21;94.48
70928;SHT31;58587;53.034;18.576;2024-02-15T15:04:50;10.21;94.61
70928;SHT31;58587;53.034;18.576;2024-02-15T15:07:33;10.18;94.56
70928;SHT31;58587;53.034;18.576;2024-02-15T15:10:17;10.18;94.64
70928;SHT31;58587;53.034;18.576;2024-02-15T15:13:01;10.14;94.51
70928;SHT31;58587;53.034;18.576;2024-02-15T15:15:28;10.16;94.49
70928;SHT31;58587;53.034;18.576;2024-02-15T15:17:53;10.14;94.58
70928;SHT31;58587;53.034;18.576;2024-02-15T15:20:18;10.13;94.43
70928;SHT31;58587;53.034;18.576;2024-02-15T15:22:45;10.11;94.45
70928;SHT31;58587;53.034;18.576;2024-02-15T15:25:11;10.11;94.43
70928;SHT31;58587;53.034;18.576;2024-02-15T15:27:37;10.13;94.40
70928;SHT31;58587;53.034;18.576;2024-02-15T15:30:04;10.09;94.31
70928;SHT31;58587;53.034;18.576;2024-02-15T15:32:29;10.07;94.38
70928;SHT31;58587;53.034;18.576;2024-02-15T15:34:55;10.07;94.37
70928;SHT31;58587;53.034;18.576;2024-02-15T15:37:21;10.04;94.60
70928;SHT31;58587;53.034;18.576;2024-02-15T15:39:48;10.06;94.58